Terminal Aerodrome Forecast
Issued by NWS

Home | Current Version | Previous Version | Text Only | Print | Product List | Glossary Off
Versions: 1 2 3 4 5 6 7 8 9 10 11 12 13 14 15 16

000
FTUS43 KGRB 280520
TAFATW
TAF
KATW 280520Z 2806/2906 VRB03KT P6SM SKC
     FM281500 18010KT P6SM SCT050
     FM282300 15008KT P6SM SCT050
      TEMPO 2903/2906 BKN050=

USA.gov is the U.S. government's official web portal to all federal, state and local government web resources and services.